Terminal Aerodrome Forecast
Issued by NWS Sioux Falls, SD

Home | Current Version | Previous Version | Text Only | Print | Product List | Glossary On
Versions: 1 2 3 4 5 6 7 8 9 10 11 12 13 14 15 16 17 18 19 20
824
FTUS43 KFSD 072346
TAFFSD
TAF
KFSD 072346Z 0800/0824 32025G37KT P6SM BKN040
      TEMPO 0801/0805 1 1/2SM -SHSN BLSN BKN025
     FM081400 33025G37KT P6SM OVC030
     FM081500 33022G30KT P6SM OVC015=

USA.gov is the U.S. government's official web portal to all federal, state and local government web resources and services.